Thompson, ND

9:52 PM CDT on June 02, 2015 (GMT -0500)
Grand Forks Air Force Base | | Change Station
CLOSE
Current Station
Airport
Location: Grand Forks AFB,
Elevation: 912 ft
Nearby Weather Stations

Elev 912 ft 47.96 °N, 97.40 °W | Updated 4 minutes ago

Overcast
Overcast
61 °F
Feels Like 61 °F
N
12
Wind Variable Wind from NNE

Today
High -- | Low -- °F
--% Chance of Precip.
Yesterday
High -- | Low -- °F
Precip. -- in
5:33 AM 9:19 PM
Full, 100% visible
Pressure 29.76 in
Visibility 10.0 miles
Clouds Mostly Cloudy 500 ft
Mostly Cloudy 7000 ft
Dew Point 61 °F
Humidity 100%
Rainfall 0.76 in
Snow Depth Not available.
UV 0 out of 12
Pollen 8.00 out of 12
Air Quality Not available.
Flu Activity Sporadic
SPECI KRDR 030248Z AUTO 03010KT 10SM BKN005 BKN070 16/16 A2976 RMK AO2 CIG 005V070 BKN005 V SCT

More Conditions Fewer Conditions

Pressure 29.76 in
Visibility 10.0 miles
Clouds Mostly Cloudy 500 ft
Mostly Cloudy 7000 ft
Dew Point 61 °F
Humidity 100%
Rainfall 0.76 in
Snow Depth Not available.
UV 0 out of 12
Pollen 8.00 out of 12
Air Quality Not available.
Flu Activity Sporadic
SPECI KRDR 030248Z AUTO 03010KT 10SM BKN005 BKN070 16/16 A2976 RMK AO2 CIG 005V070 BKN005 V SCT

More Conditions Fewer Conditions

10-Day Weather Forecast

×

Almanac

Astronomy

Jun. 02, 2015 Rise Set
Actual Time
Civil Twilight
Nautical Twilight
Astronomical Twilight
Moon
Length of Visible Light
Length of Day
Tomorrow will be .
, % of the Moon is Illuminated

Today's Extremes

State Highs State Lows

Community

WunderPhotos

Upload Photos

1,826,126 photos uploaded!

WunderBlogs® & News

Nearby

Air Quality

  Air Quality AQ Index Pollutant
Not available.

Snow Depth

Station Depth Elevation

Earthquake Activity

City Distance Mag. Time & Date
Minimum magnitude displayed is 2.5.

Coastal Water Temperatures

Place Temperature

Stations

Nearby Weather Stations

Station Location Temp. Windchill Dew Point Humidity Wind Precip. Elev Updated Type